Goose Lake, Indiana
Current Conditions -  °F | °C
As of 10:54 PM on Saturday 25 Oct 2014 (Local Time) from KFWA Reporting Station
Clear Clear  
Wind Chill: 58°   Ceiling: Unl
Heat Index: 58°   Visibility: 10mi
Dew Point: 35°   Wind: 8mph
Humidity: 42%   Direction: 290°WNW
Pressure: 29.91"   Gusts: NA
Location:  41.1479°N, 85.4772°W
Report Text: KFWA 260254Z 29007KT 10SM CLR 14/02 A2991 RMK AO2 SLP127 T01440017 53010
Loading
Personal Weather Stations






























Interactive Weather Map
Tropical Storm Tracking
New forecast layout! Learn more

10-Day Weather Forecast

Advertisements
Track Severe Weather on mobile